sensor_id;sensor_type;location;lat;lon;timestamp;temperature;humidity
17998;DHT22;9124;48.144;17.098;2022-08-03T00:02:30;21.00;57.20
17998;DHT22;9124;48.144;17.098;2022-08-03T00:06:06;20.90;57.40
17998;DHT22;9124;48.144;17.098;2022-08-03T00:09:43;20.90;57.70
17998;DHT22;9124;48.144;17.098;2022-08-03T00:13:20;20.80;57.80
17998;DHT22;9124;48.144;17.098;2022-08-03T00:16:57;20.80;58.10
17998;DHT22;9124;48.144;17.098;2022-08-03T00:20:34;20.70;58.30
17998;DHT22;9124;48.144;17.098;2022-08-03T00:24:11;20.60;58.50
17998;DHT22;9124;48.144;17.098;2022-08-03T00:27:48;20.60;58.80
17998;DHT22;9124;48.144;17.098;2022-08-03T00:31:25;20.50;59.00
17998;DHT22;9124;48.144;17.098;2022-08-03T00:35:02;20.40;59.20
17998;DHT22;9124;48.144;17.098;2022-08-03T00:38:39;20.40;59.70
17998;DHT22;9124;48.144;17.098;2022-08-03T00:42:16;20.40;59.80
17998;DHT22;9124;48.144;17.098;2022-08-03T00:45:53;20.40;60.00
17998;DHT22;9124;48.144;17.098;2022-08-03T00:49:30;20.40;60.10
17998;DHT22;9124;48.144;17.098;2022-08-03T00:53:08;20.40;60.30
17998;DHT22;9124;48.144;17.098;2022-08-03T00:56:46;20.40;60.50
17998;DHT22;9124;48.144;17.098;2022-08-03T01:00:25;20.40;61.40
17998;DHT22;9124;48.144;17.098;2022-08-03T01:04:02;20.40;60.90
17998;DHT22;9124;48.144;17.098;2022-08-03T01:16:36;20.50;61.70
17998;DHT22;9124;48.144;17.098;2022-08-03T01:20:19;20.40;61.80
17998;DHT22;9124;48.144;17.098;2022-08-03T01:24:21;20.40;61.80
17998;DHT22;9124;48.144;17.098;2022-08-03T01:28:24;20.50;62.20
17998;DHT22;9124;48.144;17.098;2022-08-03T01:32:13;20.40;62.50
17998;DHT22;9124;48.144;17.098;2022-08-03T01:36:02;20.40;62.50
17998;DHT22;9124;48.144;17.098;2022-08-03T01:39:42;20.40;62.70
17998;DHT22;9124;48.144;17.098;2022-08-03T01:43:25;20.40;62.90
17998;DHT22;9124;48.144;17.098;2022-08-03T01:47:06;20.30;63.00
17998;DHT22;9124;48.144;17.098;2022-08-03T01:50:45;20.30;63.20
17998;DHT22;9124;48.144;17.098;2022-08-03T01:54:24;20.20;63.50
17998;DHT22;9124;48.144;17.098;2022-08-03T01:58:02;20.20;63.80
17998;DHT22;9124;48.144;17.098;2022-08-03T02:01:40;20.10;63.90
17998;DHT22;9124;48.144;17.098;2022-08-03T02:05:19;20.10;64.30
17998;DHT22;9124;48.144;17.098;2022-08-03T02:08:56;20.00;64.50
17998;DHT22;9124;48.144;17.098;2022-08-03T02:12:36;20.00;64.80
17998;DHT22;9124;48.144;17.098;2022-08-03T02:16:14;20.00;65.00
17998;DHT22;9124;48.144;17.098;2022-08-03T02:19:55;19.90;65.20
17998;DHT22;9124;48.144;17.098;2022-08-03T02:23:36;20.00;65.40
17998;DHT22;9124;48.144;17.098;2022-08-03T02:27:25;19.90;65.50
17998;DHT22;9124;48.144;17.098;2022-08-03T02:31:05;19.90;65.60
17998;DHT22;9124;48.144;17.098;2022-08-03T02:34:46;19.80;65.70
17998;DHT22;9124;48.144;17.098;2022-08-03T02:38:30;19.80;65.90
17998;DHT22;9124;48.144;17.098;2022-08-03T02:42:11;19.80;66.20
17998;DHT22;9124;48.144;17.098;2022-08-03T02:45:50;19.70;66.60
17998;DHT22;9124;48.144;17.098;2022-08-03T02:49:29;19.70;66.70
17998;DHT22;9124;48.144;17.098;2022-08-03T02:53:07;19.60;66.90
17998;DHT22;9124;48.144;17.098;2022-08-03T02:56:45;19.60;67.20
17998;DHT22;9124;48.144;17.098;2022-08-03T03:00:23;19.60;67.40
17998;DHT22;9124;48.144;17.098;2022-08-03T03:04:02;19.60;67.50
17998;DHT22;9124;48.144;17.098;2022-08-03T03:07:39;19.60;67.70
17998;DHT22;9124;48.144;17.098;2022-08-03T03:11:20;19.60;67.70
17998;DHT22;9124;48.144;17.098;2022-08-03T03:14:57;19.60;68.00
17998;DHT22;9124;48.144;17.098;2022-08-03T03:18:35;19.50;68.10
17998;DHT22;9124;48.144;17.098;2022-08-03T03:22:13;19.50;68.50
17998;DHT22;9124;48.144;17.098;2022-08-03T03:25:52;19.50;68.60
17998;DHT22;9124;48.144;17.098;2022-08-03T03:29:32;19.50;69.10
17998;DHT22;9124;48.144;17.098;2022-08-03T03:33:11;19.40;69.50
17998;DHT22;9124;48.144;17.098;2022-08-03T03:36:48;19.40;69.70
17998;DHT22;9124;48.144;17.098;2022-08-03T03:40:26;19.40;70.20
17998;DHT22;9124;48.144;17.098;2022-08-03T03:44:03;19.40;70.30
17998;DHT22;9124;48.144;17.098;2022-08-03T03:47:41;19.30;70.50
17998;DHT22;9124;48.144;17.098;2022-08-03T03:51:17;19.30;71.00
17998;DHT22;9124;48.144;17.098;2022-08-03T03:54:54;19.30;70.80
17998;DHT22;9124;48.144;17.098;2022-08-03T03:58:31;19.30;70.90
17998;DHT22;9124;48.144;17.098;2022-08-03T04:02:10;19.40;71.10
17998;DHT22;9124;48.144;17.098;2022-08-03T04:05:47;19.40;71.80
17998;DHT22;9124;48.144;17.098;2022-08-03T04:09:45;19.50;71.30
17998;DHT22;9124;48.144;17.098;2022-08-03T04:13:53;19.60;71.60
17998;DHT22;9124;48.144;17.098;2022-08-03T04:17:31;19.70;71.60
17998;DHT22;9124;48.144;17.098;2022-08-03T04:21:10;19.80;71.70
17998;DHT22;9124;48.144;17.098;2022-08-03T04:25:02;19.90;71.80
17998;DHT22;9124;48.144;17.098;2022-08-03T04:28:40;20.00;71.60
17998;DHT22;9124;48.144;17.098;2022-08-03T04:32:22;20.10;71.60
17998;DHT22;9124;48.144;17.098;2022-08-03T04:36:04;20.20;72.00
17998;DHT22;9124;48.144;17.098;2022-08-03T04:39:43;20.20;72.50
17998;DHT22;9124;48.144;17.098;2022-08-03T04:43:23;20.20;71.90
17998;DHT22;9124;48.144;17.098;2022-08-03T04:47:01;20.40;72.60
17998;DHT22;9124;48.144;17.098;2022-08-03T04:50:38;20.40;71.40
17998;DHT22;9124;48.144;17.098;2022-08-03T04:54:16;20.50;71.30
17998;DHT22;9124;48.144;17.098;2022-08-03T04:57:53;20.60;70.80
17998;DHT22;9124;48.144;17.098;2022-08-03T05:01:30;20.80;70.70
17998;DHT22;9124;48.144;17.098;2022-08-03T05:05:26;20.80;69.90
17998;DHT22;9124;48.144;17.098;2022-08-03T05:09:03;21.00;69.30
17998;DHT22;9124;48.144;17.098;2022-08-03T05:12:41;21.20;68.70
17998;DHT22;9124;48.144;17.098;2022-08-03T05:16:19;21.30;68.10
17998;DHT22;9124;48.144;17.098;2022-08-03T05:19:56;21.40;67.70
17998;DHT22;9124;48.144;17.098;2022-08-03T05:23:33;21.40;67.40
17998;DHT22;9124;48.144;17.098;2022-08-03T05:27:10;21.50;67.10
17998;DHT22;9124;48.144;17.098;2022-08-03T05:30:53;21.50;66.90
17998;DHT22;9124;48.144;17.098;2022-08-03T05:34:29;21.70;66.60
17998;DHT22;9124;48.144;17.098;2022-08-03T05:38:07;21.80;66.30
17998;DHT22;9124;48.144;17.098;2022-08-03T05:41:44;21.90;66.40
17998;DHT22;9124;48.144;17.098;2022-08-03T05:45:21;22.00;66.20
17998;DHT22;9124;48.144;17.098;2022-08-03T05:48:58;22.10;66.30
17998;DHT22;9124;48.144;17.098;2022-08-03T05:52:34;22.20;66.20
17998;DHT22;9124;48.144;17.098;2022-08-03T05:56:11;22.30;66.30
17998;DHT22;9124;48.144;17.098;2022-08-03T05:59:48;22.50;66.00
17998;DHT22;9124;48.144;17.098;2022-08-03T06:03:25;22.80;66.10
17998;DHT22;9124;48.144;17.098;2022-08-03T06:07:02;23.10;65.90
17998;DHT22;9124;48.144;17.098;2022-08-03T06:10:39;23.30;65.70
17998;DHT22;9124;48.144;17.098;2022-08-03T06:14:15;23.60;65.50
17998;DHT22;9124;48.144;17.098;2022-08-03T06:17:52;23.90;65.20
17998;DHT22;9124;48.144;17.098;2022-08-03T06:21:29;24.20;64.40
17998;DHT22;9124;48.144;17.098;2022-08-03T06:25:06;24.50;63.80
17998;DHT22;9124;48.144;17.098;2022-08-03T06:28:46;24.90;62.70
17998;DHT22;9124;48.144;17.098;2022-08-03T06:32:25;25.20;61.50
17998;DHT22;9124;48.144;17.098;2022-08-03T06:36:02;25.60;60.50
17998;DHT22;9124;48.144;17.098;2022-08-03T06:39:38;26.00;59.80
17998;DHT22;9124;48.144;17.098;2022-08-03T06:43:15;26.40;58.50
17998;DHT22;9124;48.144;17.098;2022-08-03T06:46:52;26.70;57.50
17998;DHT22;9124;48.144;17.098;2022-08-03T06:50:29;27.20;56.70
17998;DHT22;9124;48.144;17.098;2022-08-03T06:54:11;27.60;55.60
17998;DHT22;9124;48.144;17.098;2022-08-03T06:57:49;28.10;54.20
17998;DHT22;9124;48.144;17.098;2022-08-03T07:01:26;28.90;53.70
17998;DHT22;9124;48.144;17.098;2022-08-03T07:05:03;30.10;52.20
17998;DHT22;9124;48.144;17.098;2022-08-03T07:08:40;31.60;50.50
17998;DHT22;9124;48.144;17.098;2022-08-03T07:12:17;34.20;48.30
17998;DHT22;9124;48.144;17.098;2022-08-03T07:15:54;36.70;44.60
17998;DHT22;9124;48.144;17.098;2022-08-03T07:19:31;39.40;40.90
17998;DHT22;9124;48.144;17.098;2022-08-03T07:23:08;41.60;37.40
17998;DHT22;9124;48.144;17.098;2022-08-03T07:26:45;43.50;35.00
17998;DHT22;9124;48.144;17.098;2022-08-03T07:30:22;45.10;32.40
17998;DHT22;9124;48.144;17.098;2022-08-03T07:33:59;45.60;30.80
17998;DHT22;9124;48.144;17.098;2022-08-03T07:37:37;46.30;29.40
17998;DHT22;9124;48.144;17.098;2022-08-03T07:41:14;47.10;28.50
17998;DHT22;9124;48.144;17.098;2022-08-03T07:44:50;47.70;28.00
17998;DHT22;9124;48.144;17.098;2022-08-03T07:48:27;48.40;27.40
17998;DHT22;9124;48.144;17.098;2022-08-03T07:52:04;48.80;26.50
17998;DHT22;9124;48.144;17.098;2022-08-03T07:55:59;48.30;26.30
17998;DHT22;9124;48.144;17.098;2022-08-03T07:59:36;48.80;26.10
17998;DHT22;9124;48.144;17.098;2022-08-03T08:03:15;49.20;25.90
17998;DHT22;9124;48.144;17.098;2022-08-03T08:06:52;50.00;25.80
17998;DHT22;9124;48.144;17.098;2022-08-03T08:10:29;50.50;25.40
17998;DHT22;9124;48.144;17.098;2022-08-03T08:14:05;50.80;25.30
17998;DHT22;9124;48.144;17.098;2022-08-03T08:17:50;51.20;24.90
17998;DHT22;9124;48.144;17.098;2022-08-03T08:21:27;50.90;24.80
17998;DHT22;9124;48.144;17.098;2022-08-03T08:25:04;50.40;24.60
17998;DHT22;9124;48.144;17.098;2022-08-03T08:28:41;49.60;24.60
17998;DHT22;9124;48.144;17.098;2022-08-03T08:32:18;50.40;24.40
17998;DHT22;9124;48.144;17.098;2022-08-03T08:35:54;48.70;24.60
17998;DHT22;9124;48.144;17.098;2022-08-03T08:39:31;48.30;24.70
17998;DHT22;9124;48.144;17.098;2022-08-03T08:43:08;48.80;24.60
17998;DHT22;9124;48.144;17.098;2022-08-03T08:46:46;50.20;24.30
17998;DHT22;9124;48.144;17.098;2022-08-03T08:50:26;51.50;23.50
17998;DHT22;9124;48.144;17.098;2022-08-03T08:54:06;52.20;23.10
17998;DHT22;9124;48.144;17.098;2022-08-03T08:58:05;52.00;22.70
17998;DHT22;9124;48.144;17.098;2022-08-03T09:01:45;51.50;22.40
17998;DHT22;9124;48.144;17.098;2022-08-03T09:05:21;51.10;22.70
17998;DHT22;9124;48.144;17.098;2022-08-03T09:08:59;51.40;22.40
17998;DHT22;9124;48.144;17.098;2022-08-03T09:12:41;51.10;22.20
17998;DHT22;9124;48.144;17.098;2022-08-03T09:16:21;51.20;22.20
17998;DHT22;9124;48.144;17.098;2022-08-03T09:20:07;51.50;22.30
17998;DHT22;9124;48.144;17.098;2022-08-03T09:23:51;51.60;22.30
17998;DHT22;9124;48.144;17.098;2022-08-03T09:27:28;52.30;22.00
17998;DHT22;9124;48.144;17.098;2022-08-03T09:31:06;51.30;21.50
17998;DHT22;9124;48.144;17.098;2022-08-03T09:34:43;51.70;21.80
17998;DHT22;9124;48.144;17.098;2022-08-03T09:38:22;52.00;22.20
17998;DHT22;9124;48.144;17.098;2022-08-03T09:42:07;52.10;21.40
17998;DHT22;9124;48.144;17.098;2022-08-03T09:45:44;52.10;21.40
17998;DHT22;9124;48.144;17.098;2022-08-03T09:49:22;50.50;21.80
17998;DHT22;9124;48.144;17.098;2022-08-03T09:53:01;50.10;22.00
17998;DHT22;9124;48.144;17.098;2022-08-03T09:56:44;49.90;22.10
17998;DHT22;9124;48.144;17.098;2022-08-03T10:00:22;49.60;22.40
17998;DHT22;9124;48.144;17.098;2022-08-03T10:03:59;49.60;22.50
17998;DHT22;9124;48.144;17.098;2022-08-03T10:07:47;50.10;22.50
17998;DHT22;9124;48.144;17.098;2022-08-03T10:11:31;50.40;22.30
17998;DHT22;9124;48.144;17.098;2022-08-03T10:15:10;50.40;22.60
17998;DHT22;9124;48.144;17.098;2022-08-03T10:18:47;49.60;22.30
17998;DHT22;9124;48.144;17.098;2022-08-03T10:22:31;49.40;22.70
17998;DHT22;9124;48.144;17.098;2022-08-03T10:26:10;50.00;22.80
17998;DHT22;9124;48.144;17.098;2022-08-03T10:29:54;49.90;22.80
17998;DHT22;9124;48.144;17.098;2022-08-03T10:33:36;48.00;23.20
17998;DHT22;9124;48.144;17.098;2022-08-03T10:37:14;44.50;24.40
17998;DHT22;9124;48.144;17.098;2022-08-03T10:40:55;40.80;25.70
17998;DHT22;9124;48.144;17.098;2022-08-03T10:44:38;38.50;27.00
17998;DHT22;9124;48.144;17.098;2022-08-03T10:48:17;36.20;28.40
17998;DHT22;9124;48.144;17.098;2022-08-03T10:51:56;34.60;30.00
17998;DHT22;9124;48.144;17.098;2022-08-03T10:55:39;33.70;30.60
17998;DHT22;9124;48.144;17.098;2022-08-03T11:03:25;32.30;32.40
17998;DHT22;9124;48.144;17.098;2022-08-03T11:07:25;31.90;33.40
17998;DHT22;9124;48.144;17.098;2022-08-03T11:15:03;31.40;34.20
17998;DHT22;9124;48.144;17.098;2022-08-03T11:18:56;31.30;34.30
17998;DHT22;9124;48.144;17.098;2022-08-03T11:22:49;31.10;34.90
17998;DHT22;9124;48.144;17.098;2022-08-03T11:26:29;31.00;35.10
17998;DHT22;9124;48.144;17.098;2022-08-03T11:30:09;30.90;35.40
17998;DHT22;9124;48.144;17.098;2022-08-03T11:34:09;31.10;36.00
17998;DHT22;9124;48.144;17.098;2022-08-03T11:41:35;31.10;36.50
17998;DHT22;9124;48.144;17.098;2022-08-03T11:45:13;31.10;36.20
17998;DHT22;9124;48.144;17.098;2022-08-03T11:48:50;30.90;36.20
17998;DHT22;9124;48.144;17.098;2022-08-03T11:52:34;30.90;36.50
17998;DHT22;9124;48.144;17.098;2022-08-03T11:56:11;31.00;36.60
17998;DHT22;9124;48.144;17.098;2022-08-03T11:59:48;30.90;36.50
17998;DHT22;9124;48.144;17.098;2022-08-03T12:03:32;30.90;36.60
17998;DHT22;9124;48.144;17.098;2022-08-03T12:07:09;30.90;36.50
17998;DHT22;9124;48.144;17.098;2022-08-03T12:10:50;30.90;36.40
17998;DHT22;9124;48.144;17.098;2022-08-03T12:14:27;31.10;36.90
17998;DHT22;9124;48.144;17.098;2022-08-03T12:18:16;31.40;36.50
17998;DHT22;9124;48.144;17.098;2022-08-03T12:21:53;31.30;36.30
17998;DHT22;9124;48.144;17.098;2022-08-03T12:25:31;31.40;36.50
17998;DHT22;9124;48.144;17.098;2022-08-03T12:29:18;31.20;36.20
17998;DHT22;9124;48.144;17.098;2022-08-03T12:32:56;31.10;36.70
17998;DHT22;9124;48.144;17.098;2022-08-03T12:36:34;31.00;36.10
17998;DHT22;9124;48.144;17.098;2022-08-03T12:40:11;30.70;36.20
17998;DHT22;9124;48.144;17.098;2022-08-03T12:43:51;30.60;36.90
17998;DHT22;9124;48.144;17.098;2022-08-03T12:47:28;30.60;37.30
17998;DHT22;9124;48.144;17.098;2022-08-03T12:51:09;30.50;37.60
17998;DHT22;9124;48.144;17.098;2022-08-03T12:54:59;30.30;37.60
17998;DHT22;9124;48.144;17.098;2022-08-03T12:58:36;30.40;38.00
17998;DHT22;9124;48.144;17.098;2022-08-03T13:02:18;30.80;37.90
17998;DHT22;9124;48.144;17.098;2022-08-03T13:05:55;31.20;37.40
17998;DHT22;9124;48.144;17.098;2022-08-03T13:13:39;31.70;36.70
17998;DHT22;9124;48.144;17.098;2022-08-03T13:17:16;31.70;36.40
17998;DHT22;9124;48.144;17.098;2022-08-03T13:20:53;31.80;36.00
17998;DHT22;9124;48.144;17.098;2022-08-03T13:24:31;31.90;36.10
17998;DHT22;9124;48.144;17.098;2022-08-03T13:28:08;32.20;35.90
17998;DHT22;9124;48.144;17.098;2022-08-03T13:31:45;32.60;35.70
17998;DHT22;9124;48.144;17.098;2022-08-03T13:35:21;32.80;35.20
17998;DHT22;9124;48.144;17.098;2022-08-03T13:38:58;32.80;34.90
17998;DHT22;9124;48.144;17.098;2022-08-03T13:42:35;32.70;35.10
17998;DHT22;9124;48.144;17.098;2022-08-03T13:46:12;32.60;35.00
17998;DHT22;9124;48.144;17.098;2022-08-03T13:49:49;32.50;35.10
17998;DHT22;9124;48.144;17.098;2022-08-03T13:53:28;32.30;35.00
17998;DHT22;9124;48.144;17.098;2022-08-03T13:57:06;32.10;35.10
17998;DHT22;9124;48.144;17.098;2022-08-03T14:00:42;32.20;35.40
17998;DHT22;9124;48.144;17.098;2022-08-03T14:04:20;32.10;35.50
17998;DHT22;9124;48.144;17.098;2022-08-03T14:07:57;31.90;35.90
17998;DHT22;9124;48.144;17.098;2022-08-03T14:11:34;31.70;36.20
17998;DHT22;9124;48.144;17.098;2022-08-03T14:15:10;31.40;36.30
17998;DHT22;9124;48.144;17.098;2022-08-03T14:18:49;31.20;36.70
17998;DHT22;9124;48.144;17.098;2022-08-03T14:22:25;31.50;36.80
17998;DHT22;9124;48.144;17.098;2022-08-03T14:26:07;31.70;36.50
17998;DHT22;9124;48.144;17.098;2022-08-03T14:29:43;31.90;36.20
17998;DHT22;9124;48.144;17.098;2022-08-03T14:33:21;31.80;36.10
17998;DHT22;9124;48.144;17.098;2022-08-03T14:36:58;32.00;36.10
17998;DHT22;9124;48.144;17.098;2022-08-03T14:40:35;32.10;35.60
17998;DHT22;9124;48.144;17.098;2022-08-03T14:44:12;32.10;35.50
17998;DHT22;9124;48.144;17.098;2022-08-03T14:47:50;32.10;35.70
17998;DHT22;9124;48.144;17.098;2022-08-03T14:51:26;32.00;35.40
17998;DHT22;9124;48.144;17.098;2022-08-03T14:55:05;32.00;35.50
17998;DHT22;9124;48.144;17.098;2022-08-03T14:58:42;31.70;35.40
17998;DHT22;9124;48.144;17.098;2022-08-03T15:02:19;31.40;35.80
17998;DHT22;9124;48.144;17.098;2022-08-03T15:05:56;31.30;36.10
17998;DHT22;9124;48.144;17.098;2022-08-03T15:09:33;31.10;36.70
17998;DHT22;9124;48.144;17.098;2022-08-03T15:13:11;30.70;36.80
17998;DHT22;9124;48.144;17.098;2022-08-03T15:16:49;30.50;37.00
17998;DHT22;9124;48.144;17.098;2022-08-03T15:20:26;30.50;37.40
17998;DHT22;9124;48.144;17.098;2022-08-03T15:24:03;30.60;37.40
17998;DHT22;9124;48.144;17.098;2022-08-03T15:27:40;30.60;37.70
17998;DHT22;9124;48.144;17.098;2022-08-03T15:31:23;30.70;37.80
17998;DHT22;9124;48.144;17.098;2022-08-03T15:35:00;30.80;37.60
17998;DHT22;9124;48.144;17.098;2022-08-03T15:38:38;30.90;37.40
17998;DHT22;9124;48.144;17.098;2022-08-03T15:42:14;30.80;37.40
17998;DHT22;9124;48.144;17.098;2022-08-03T15:45:51;30.80;37.20
17998;DHT22;9124;48.144;17.098;2022-08-03T15:49:28;30.70;37.00
17998;DHT22;9124;48.144;17.098;2022-08-03T15:53:05;30.70;37.30
17998;DHT22;9124;48.144;17.098;2022-08-03T15:56:42;30.60;37.60
17998;DHT22;9124;48.144;17.098;2022-08-03T16:00:20;30.50;37.70
17998;DHT22;9124;48.144;17.098;2022-08-03T16:03:57;30.50;38.00
17998;DHT22;9124;48.144;17.098;2022-08-03T16:07:34;30.40;37.80
17998;DHT22;9124;48.144;17.098;2022-08-03T16:11:23;30.40;37.80
17998;DHT22;9124;48.144;17.098;2022-08-03T16:15:01;30.40;37.70
17998;DHT22;9124;48.144;17.098;2022-08-03T16:18:37;30.40;37.80
17998;DHT22;9124;48.144;17.098;2022-08-03T16:22:14;30.40;37.70
17998;DHT22;9124;48.144;17.098;2022-08-03T16:25:52;30.40;37.80
17998;DHT22;9124;48.144;17.098;2022-08-03T16:29:29;30.50;38.00
17998;DHT22;9124;48.144;17.098;2022-08-03T16:33:06;30.50;38.00
17998;DHT22;9124;48.144;17.098;2022-08-03T16:36:43;30.50;38.00
17998;DHT22;9124;48.144;17.098;2022-08-03T16:40:20;30.50;38.40
17998;DHT22;9124;48.144;17.098;2022-08-03T16:43:57;30.60;38.30
17998;DHT22;9124;48.144;17.098;2022-08-03T16:47:34;30.60;38.10
17998;DHT22;9124;48.144;17.098;2022-08-03T16:51:10;30.70;38.00
17998;DHT22;9124;48.144;17.098;2022-08-03T16:54:48;30.70;38.10
17998;DHT22;9124;48.144;17.098;2022-08-03T16:58:25;30.70;38.20
17998;DHT22;9124;48.144;17.098;2022-08-03T17:02:02;30.70;38.40
17998;DHT22;9124;48.144;17.098;2022-08-03T17:05:40;30.60;38.50
17998;DHT22;9124;48.144;17.098;2022-08-03T17:09:17;30.50;38.50
17998;DHT22;9124;48.144;17.098;2022-08-03T17:12:56;30.30;38.90
17998;DHT22;9124;48.144;17.098;2022-08-03T17:16:33;30.20;39.10
17998;DHT22;9124;48.144;17.098;2022-08-03T17:20:13;30.00;39.40
17998;DHT22;9124;48.144;17.098;2022-08-03T17:24:01;29.70;39.70
17998;DHT22;9124;48.144;17.098;2022-08-03T17:27:40;29.50;40.20
17998;DHT22;9124;48.144;17.098;2022-08-03T17:31:19;29.20;40.30
17998;DHT22;9124;48.144;17.098;2022-08-03T17:34:59;29.00;40.80
17998;DHT22;9124;48.144;17.098;2022-08-03T17:38:39;28.70;41.10
17998;DHT22;9124;48.144;17.098;2022-08-03T17:42:16;28.50;42.00
17998;DHT22;9124;48.144;17.098;2022-08-03T17:45:53;28.20;42.20
17998;DHT22;9124;48.144;17.098;2022-08-03T17:49:30;28.00;42.40
17998;DHT22;9124;48.144;17.098;2022-08-03T17:53:14;27.80;42.40
17998;DHT22;9124;48.144;17.098;2022-08-03T17:57:12;27.70;42.80
17998;DHT22;9124;48.144;17.098;2022-08-03T18:00:51;27.50;43.10
17998;DHT22;9124;48.144;17.098;2022-08-03T18:04:57;27.30;43.10
17998;DHT22;9124;48.144;17.098;2022-08-03T18:08:49;27.20;43.50
17998;DHT22;9124;48.144;17.098;2022-08-03T18:12:27;27.00;43.70
17998;DHT22;9124;48.144;17.098;2022-08-03T18:16:06;26.90;43.80
17998;DHT22;9124;48.144;17.098;2022-08-03T18:19:49;26.70;44.00
17998;DHT22;9124;48.144;17.098;2022-08-03T18:23:27;26.60;44.10
17998;DHT22;9124;48.144;17.098;2022-08-03T18:27:06;26.50;44.10
17998;DHT22;9124;48.144;17.098;2022-08-03T18:30:43;26.30;44.40
17998;DHT22;9124;48.144;17.098;2022-08-03T18:34:21;26.20;44.90
17998;DHT22;9124;48.144;17.098;2022-08-03T18:38:01;26.10;44.90
17998;DHT22;9124;48.144;17.098;2022-08-03T18:41:39;25.90;45.60
17998;DHT22;9124;48.144;17.098;2022-08-03T18:45:16;25.80;45.30
17998;DHT22;9124;48.144;17.098;2022-08-03T18:49:04;25.70;45.20
17998;DHT22;9124;48.144;17.098;2022-08-03T18:53:02;25.60;45.40
17998;DHT22;9124;48.144;17.098;2022-08-03T18:56:56;25.60;45.30
17998;DHT22;9124;48.144;17.098;2022-08-03T19:00:37;25.50;45.30
17998;DHT22;9124;48.144;17.098;2022-08-03T19:04:34;25.40;45.50
17998;DHT22;9124;48.144;17.098;2022-08-03T19:08:19;25.30;45.80
17998;DHT22;9124;48.144;17.098;2022-08-03T19:12:02;25.30;45.00
17998;DHT22;9124;48.144;17.098;2022-08-03T19:15:42;25.30;45.10
17998;DHT22;9124;48.144;17.098;2022-08-03T19:19:24;25.20;45.30
17998;DHT22;9124;48.144;17.098;2022-08-03T19:23:02;25.10;45.30
17998;DHT22;9124;48.144;17.098;2022-08-03T19:26:39;25.10;45.20
17998;DHT22;9124;48.144;17.098;2022-08-03T19:30:17;25.00;45.00
17998;DHT22;9124;48.144;17.098;2022-08-03T19:34:16;25.00;45.00
17998;DHT22;9124;48.144;17.098;2022-08-03T19:37:54;24.90;45.10
17998;DHT22;9124;48.144;17.098;2022-08-03T19:41:35;24.80;45.10
17998;DHT22;9124;48.144;17.098;2022-08-03T19:45:25;24.70;45.50
17998;DHT22;9124;48.144;17.098;2022-08-03T19:49:07;24.60;46.00
17998;DHT22;9124;48.144;17.098;2022-08-03T19:52:47;24.60;45.90
17998;DHT22;9124;48.144;17.098;2022-08-03T19:56:27;24.50;45.90
17998;DHT22;9124;48.144;17.098;2022-08-03T20:00:06;24.50;46.30
17998;DHT22;9124;48.144;17.098;2022-08-03T20:03:45;24.40;46.80
17998;DHT22;9124;48.144;17.098;2022-08-03T20:07:25;24.40;46.90
17998;DHT22;9124;48.144;17.098;2022-08-03T20:11:02;24.30;47.20
17998;DHT22;9124;48.144;17.098;2022-08-03T20:14:39;24.20;47.60
17998;DHT22;9124;48.144;17.098;2022-08-03T20:18:20;24.10;47.40
17998;DHT22;9124;48.144;17.098;2022-08-03T20:21:57;24.00;47.50
17998;DHT22;9124;48.144;17.098;2022-08-03T20:25:40;24.00;47.40
17998;DHT22;9124;48.144;17.098;2022-08-03T20:29:28;23.90;47.70
17998;DHT22;9124;48.144;17.098;2022-08-03T20:33:05;23.80;47.70
17998;DHT22;9124;48.144;17.098;2022-08-03T20:36:42;23.70;47.60
17998;DHT22;9124;48.144;17.098;2022-08-03T20:40:21;23.70;48.20
17998;DHT22;9124;48.144;17.098;2022-08-03T20:43:57;23.60;48.40
17998;DHT22;9124;48.144;17.098;2022-08-03T20:47:40;23.40;48.50
17998;DHT22;9124;48.144;17.098;2022-08-03T20:51:17;23.40;48.70
17998;DHT22;9124;48.144;17.098;2022-08-03T20:54:56;23.30;48.80
17998;DHT22;9124;48.144;17.098;2022-08-03T20:58:34;23.20;49.10
17998;DHT22;9124;48.144;17.098;2022-08-03T21:02:11;23.10;49.40
17998;DHT22;9124;48.144;17.098;2022-08-03T21:05:50;23.10;49.80
17998;DHT22;9124;48.144;17.098;2022-08-03T21:09:37;23.10;50.10
17998;DHT22;9124;48.144;17.098;2022-08-03T21:13:22;23.00;50.20
17998;DHT22;9124;48.144;17.098;2022-08-03T21:17:02;23.00;50.40
17998;DHT22;9124;48.144;17.098;2022-08-03T21:20:41;22.90;50.30
17998;DHT22;9124;48.144;17.098;2022-08-03T21:24:20;22.80;50.40
17998;DHT22;9124;48.144;17.098;2022-08-03T21:28:00;22.70;50.60
17998;DHT22;9124;48.144;17.098;2022-08-03T21:31:39;22.70;50.70
17998;DHT22;9124;48.144;17.098;2022-08-03T21:35:17;22.70;50.80
17998;DHT22;9124;48.144;17.098;2022-08-03T21:38:54;22.60;50.80
17998;DHT22;9124;48.144;17.098;2022-08-03T21:42:31;22.50;50.90
17998;DHT22;9124;48.144;17.098;2022-08-03T21:46:09;22.50;51.20
17998;DHT22;9124;48.144;17.098;2022-08-03T21:49:51;22.40;51.50
17998;DHT22;9124;48.144;17.098;2022-08-03T21:53:32;22.40;51.90
17998;DHT22;9124;48.144;17.098;2022-08-03T21:57:23;22.30;52.00
17998;DHT22;9124;48.144;17.098;2022-08-03T22:01:02;22.40;52.30
17998;DHT22;9124;48.144;17.098;2022-08-03T22:04:40;22.30;52.10
17998;DHT22;9124;48.144;17.098;2022-08-03T22:08:17;22.30;52.20
17998;DHT22;9124;48.144;17.098;2022-08-03T22:11:54;22.20;52.10
17998;DHT22;9124;48.144;17.098;2022-08-03T22:15:31;22.20;52.80
17998;DHT22;9124;48.144;17.098;2022-08-03T22:19:09;22.20;52.30
17998;DHT22;9124;48.144;17.098;2022-08-03T22:22:48;22.20;52.20
17998;DHT22;9124;48.144;17.098;2022-08-03T22:26:29;22.20;52.40
17998;DHT22;9124;48.144;17.098;2022-08-03T22:30:11;22.10;52.40
17998;DHT22;9124;48.144;17.098;2022-08-03T22:33:51;22.10;52.50
17998;DHT22;9124;48.144;17.098;2022-08-03T22:37:29;22.10;52.60
17998;DHT22;9124;48.144;17.098;2022-08-03T22:41:07;22.00;52.70
17998;DHT22;9124;48.144;17.098;2022-08-03T22:44:48;22.00;52.80
17998;DHT22;9124;48.144;17.098;2022-08-03T22:48:26;22.00;52.60
17998;DHT22;9124;48.144;17.098;2022-08-03T22:52:10;22.10;52.80
17998;DHT22;9124;48.144;17.098;2022-08-03T22:55:49;22.20;52.60
17998;DHT22;9124;48.144;17.098;2022-08-03T22:59:26;22.20;53.20
17998;DHT22;9124;48.144;17.098;2022-08-03T23:03:04;22.10;52.30
17998;DHT22;9124;48.144;17.098;2022-08-03T23:06:44;22.10;52.30
17998;DHT22;9124;48.144;17.098;2022-08-03T23:10:24;22.00;52.30
17998;DHT22;9124;48.144;17.098;2022-08-03T23:14:11;22.00;52.50
17998;DHT22;9124;48.144;17.098;2022-08-03T23:17:52;22.00;52.50
17998;DHT22;9124;48.144;17.098;2022-08-03T23:21:29;21.90;52.40
17998;DHT22;9124;48.144;17.098;2022-08-03T23:25:06;21.80;52.50
17998;DHT22;9124;48.144;17.098;2022-08-03T23:28:44;21.80;52.40
17998;DHT22;9124;48.144;17.098;2022-08-03T23:32:25;21.80;52.70